Time;durP1;ratioP1;P1;durP2;ratioP2;P2;SDS_P1;SDS_P2;PMS_P1;PMS_P2;Temp;Humidity;BMP_temperature;BMP_pressure;BME280_temperature;BME280_humidity;BME280_pressure;Samples;Min_cycle;Max_cycle;Signal;HPM_P1;HPM_P2
2023/02/24 00:01:36;;;;;;;21.92;12.80;;;;;;;;;;5033826;28;20060;-58
2023/02/24 00:04:07;;;;;;;21.13;12.45;;;;;;;;;;5034108;28;20045;-53
2023/02/24 00:06:36;;;;;;;;;;;;;;;;;;5021903;28;20137;-57
2023/02/24 00:09:07;;;;;;;19.27;11.63;;;;;;;;;;5013970;28;20229;-58
2023/02/24 00:11:35;;;;;;;17.30;11.07;;;;;;;;;;5014142;28;20052;-57
2023/02/24 00:14:04;;;;;;;19.40;11.82;;;;;;;;;;5013862;28;20053;-58
2023/02/24 00:16:32;;;;;;;17.15;11.43;;;;;;;;;;5013839;28;20050;-57
2023/02/24 00:18:59;;;;;;;19.50;11.50;;;;;;;;;;5013953;28;20505;-57
2023/02/24 00:21:27;;;;;;;20.10;12.52;;;;;;;;;;5013347;28;20129;-56
2023/02/24 00:23:58;;;;;;;20.40;13.80;;;;;;;;;;5013747;28;20517;-58
2023/02/24 00:26:25;;;;;;;25.65;13.48;;;;;;;;;;5013759;28;20113;-54
2023/02/24 00:28:52;;;;;;;22.00;13.82;;;;;;;;;;5013909;28;20137;-57
2023/02/24 00:31:22;;;;;;;22.33;11.57;;;;;;;;;;5064206;23;20041;-80
2023/02/24 00:33:49;;;;;;;19.52;12.57;;;;;;;;;;5069454;28;20048;-79
2023/02/24 00:36:22;;;;;;;18.63;11.93;;;;;;;;;;5069348;28;20052;-79
2023/02/24 00:38:50;;;;;;;20.52;12.90;;;;;;;;;;5067657;28;20049;-79
2023/02/24 00:41:21;;;;;;;21.10;12.20;;;;;;;;;;5055607;28;20073;-79
2023/02/24 00:43:48;;;;;;;;;;;;;;;;;;5052100;28;20041;-79
2023/02/24 00:46:16;;;;;;;17.60;9.77;;;;;;;;;;5051211;28;19905;-79
2023/02/24 00:48:45;;;;;;;17.05;9.25;;;;;;;;;;5050820;28;20053;-80
2023/02/24 00:51:13;;;;;;;15.05;8.43;;;;;;;;;;5050823;28;20060;-79
2023/02/24 00:53:40;;;;;;;15.40;8.32;;;;;;;;;;5045647;28;20076;-80
2023/02/24 00:56:07;;;;;;;14.25;8.43;;;;;;;;;;5039308;28;20056;-79
2023/02/24 00:58:36;;;;;;;15.77;8.73;;;;;;;;;;5039500;28;20056;-81
2023/02/24 01:01:04;;;;;;;17.15;9.15;;;;;;;;;;5041876;28;20049;-79
2023/02/24 01:03:32;;;;;;;13.70;9.48;;;;;;;;;;5046351;28;20045;-79
2023/02/24 01:06:02;;;;;;;17.77;10.98;;;;;;;;;;5040234;28;20412;-78
2023/02/24 01:08:29;;;;;;;19.85;10.77;;;;;;;;;;5040535;28;20049;-78
2023/02/24 01:13:39;;;;;;;23.73;12.73;;;;;;;;;;5039588;28;20049;-78
2023/02/24 01:16:06;;;;;;;20.85;11.70;;;;;;;;;;5039970;28;20084;-78
2023/02/24 01:18:33;;;;;;;23.42;13.65;;;;;;;;;;5038843;28;20053;-79
2023/02/24 01:20:59;;;;;;;22.58;12.10;;;;;;;;;;5040388;28;20132;-80
2023/02/24 01:23:26;;;;;;;21.95;12.32;;;;;;;;;;5037287;28;20081;-80
2023/02/24 01:25:55;;;;;;;19.13;11.82;;;;;;;;;;5041661;28;20073;-79
2023/02/24 01:28:22;;;;;;;19.88;12.10;;;;;;;;;;5039301;28;20057;-80
2023/02/24 01:30:50;;;;;;;24.50;12.32;;;;;;;;;;5036957;28;20113;-80
2023/02/24 01:33:16;;;;;;;20.83;12.38;;;;;;;;;;5037344;28;20052;-79
2023/02/24 01:35:44;;;;;;;19.70;11.40;;;;;;;;;;5038735;28;20048;-79
2023/02/24 01:38:11;;;;;;;15.80;9.77;;;;;;;;;;5039236;28;20133;-79
2023/02/24 01:40:37;;;;;;;14.85;8.95;;;;;;;;;;5040668;28;20045;-79
2023/02/24 01:43:07;;;;;;;16.02;8.70;;;;;;;;;;5040388;28;20045;-79
2023/02/24 01:45:35;;;;;;;16.15;8.60;;;;;;;;;;5040567;28;20550;-79
2023/02/24 01:48:07;;;;;;;17.42;10.27;;;;;;;;;;5041050;28;20084;-79
2023/02/24 01:50:35;;;;;;;19.42;10.15;;;;;;;;;;5040149;28;20045;-79
2023/02/24 01:53:06;;;;;;;18.33;10.88;;;;;;;;;;5037613;28;20049;-79
2023/02/24 01:55:35;;;;;;;;;;;;;;;;;;5044715;28;20077;-79
2023/02/24 01:58:15;;;;;;;19.85;13.35;;;;;;;;;;5041219;28;19925;-79
2023/02/24 02:00:45;;;;;;;20.13;12.50;;;;;;;;;;5040951;28;20054;-79
2023/02/24 02:03:26;;;;;;;21.27;12.75;;;;;;;;;;5040895;28;20829;-78
2023/02/24 02:05:57;;;;;;;20.65;13.18;;;;;;;;;;5040617;28;20057;-79
2023/02/24 02:08:24;;;;;;;20.48;12.63;;;;;;;;;;5040321;28;20460;-79
2023/02/24 02:10:57;;;;;;;19.92;11.68;;;;;;;;;;5038887;28;20053;-79
2023/02/24 02:13:25;;;;;;;20.23;12.80;;;;;;;;;;5038786;28;20045;-79
2023/02/24 02:16:02;;;;;;;21.40;12.98;;;;;;;;;;5037976;28;20113;-79
2023/02/24 02:18:42;;;;;;;19.48;12.40;;;;;;;;;;5038425;28;20088;-79
2023/02/24 02:21:32;;;;;;;22.20;11.55;;;;;;;;;;5038830;28;20522;-79
2023/02/24 02:24:24;;;;;;;25.92;14.35;;;;;;;;;;5039734;28;20048;-79
2023/02/24 02:27:12;;;;;;;26.17;13.38;;;;;;;;;;5039112;28;20081;-79
2023/02/24 02:30:12;;;;;;;21.83;12.95;;;;;;;;;;5038560;28;20073;-79
2023/02/24 02:33:15;;;;;;;21.20;12.55;;;;;;;;;;5039968;28;20050;-79
2023/02/24 02:35:53;;;;;;;23.08;13.05;;;;;;;;;;5033016;28;20084;-79
2023/02/24 02:38:25;;;;;;;22.77;11.77;;;;;;;;;;5040005;28;20049;-79
2023/02/24 02:41:05;;;;;;;19.25;10.95;;;;;;;;;;5039441;28;20542;-79
2023/02/24 02:43:37;;;;;;;18.70;10.37;;;;;;;;;;5038751;28;20451;-79
2023/02/24 02:46:13;;;;;;;20.92;11.95;;;;;;;;;;5039396;28;20084;-79
2023/02/24 02:48:47;;;;;;;21.55;11.07;;;;;;;;;;5038695;28;20049;-79
2023/02/24 02:51:17;;;;;;;18.63;11.88;;;;;;;;;;5038086;28;20041;-78
2023/02/24 02:53:50;;;;;;;19.80;11.60;;;;;;;;;;5038287;28;20081;-79
2023/02/24 02:56:20;;;;;;;18.90;11.35;;;;;;;;;;5039021;28;20049;-78
2023/02/24 02:58:52;;;;;;;18.70;10.43;;;;;;;;;;5036956;28;20046;-79
2023/02/24 03:01:21;;;;;;;16.45;9.77;;;;;;;;;;5038566;28;20275;-80
2023/02/24 03:03:52;;;;;;;14.55;8.85;;;;;;;;;;5034674;28;20049;-78
2023/02/24 03:06:22;;;;;;;;;;;;;;;;;;5038671;28;20046;-79
2023/02/24 03:08:55;;;;;;;14.60;7.68;;;;;;;;;;5039436;28;19952;-78
2023/02/24 03:11:22;;;;;;;14.63;7.82;;;;;;;;;;5039333;28;20133;-79
2023/02/24 03:13:53;;;;;;;14.52;8.25;;;;;;;;;;5038479;28;20048;-78
2023/02/24 03:16:21;;;;;;;;;;;;;;;;;;5039845;28;20501;-79
2023/02/24 03:18:52;;;;;;;18.67;10.00;;;;;;;;;;5038044;28;20372;-78
2023/02/24 03:21:27;;;;;;;;;;;;;;;;;;5039008;28;20132;-79
2023/02/24 03:23:54;;;;;;;17.55;9.40;;;;;;;;;;5041556;28;19928;-78
2023/02/24 03:26:27;;;;;;;17.95;10.63;;;;;;;;;;5050046;28;20052;-79
2023/02/24 03:29:00;;;;;;;20.23;10.98;;;;;;;;;;5047884;28;20045;-79
2023/02/24 03:31:31;;;;;;;18.35;10.60;;;;;;;;;;5045978;28;20069;-79
2023/02/24 03:34:05;;;;;;;14.15;8.90;;;;;;;;;;5045688;28;20078;-77
2023/02/24 03:36:33;;;;;;;15.65;8.20;;;;;;;;;;5043600;28;20076;-78
2023/02/24 03:39:01;;;;;;;16.02;9.20;;;;;;;;;;5042504;28;20065;-79
2023/02/24 03:41:33;;;;;;;18.90;10.95;;;;;;;;;;5042343;28;20041;-78
2023/02/24 03:44:02;;;;;;;18.00;10.10;;;;;;;;;;5041882;28;20153;-79
2023/02/24 03:46:31;;;;;;;21.42;11.50;;;;;;;;;;5040589;28;20053;-79
2023/02/24 03:49:02;;;;;;;21.85;12.35;;;;;;;;;;5039888;28;20045;-79
2023/02/24 03:51:30;;;;;;;19.52;12.48;;;;;;;;;;5039173;28;20064;-79
2023/02/24 03:54:07;;;;;;;19.88;11.80;;;;;;;;;;5038865;28;20099;-79
2023/02/24 03:56:45;;;;;;;22.15;11.30;;;;;;;;;;5039311;28;20056;-78
2023/02/24 03:59:24;;;;;;;21.48;12.45;;;;;;;;;;5038761;28;20049;-78
2023/02/24 04:01:56;;;;;;;21.95;12.63;;;;;;;;;;5038790;28;20103;-78
2023/02/24 04:04:31;;;;;;;25.67;13.00;;;;;;;;;;5039569;28;20457;-79
2023/02/24 04:07:02;;;;;;;21.00;12.77;;;;;;;;;;5039493;28;20061;-78
2023/02/24 04:09:39;;;;;;;19.83;11.40;;;;;;;;;;5039045;28;20448;-79
2023/02/24 04:12:12;;;;;;;18.60;10.57;;;;;;;;;;5039547;28;20042;-79
2023/02/24 04:14:56;;;;;;;20.17;11.13;;;;;;;;;;5040187;28;20056;-80
2023/02/24 04:17:28;;;;;;;18.15;10.20;;;;;;;;;;5039931;28;20060;-78
2023/02/24 04:20:00;;;;;;;19.00;10.95;;;;;;;;;;5040664;28;20076;-78
2023/02/24 04:22:28;;;;;;;19.90;11.68;;;;;;;;;;5040684;28;20566;-79
2023/02/24 04:25:01;;;;;;;18.90;11.02;;;;;;;;;;5043992;28;20069;-79
2023/02/24 04:27:29;;;;;;;17.20;10.30;;;;;;;;;;5042933;28;20049;-79
2023/02/24 04:29:59;;;;;;;21.30;10.70;;;;;;;;;;5039239;28;20109;-79
2023/02/24 04:32:29;;;;;;;17.67;10.52;;;;;;;;;;5038507;28;20049;-78
2023/02/24 04:35:01;;;;;;;18.45;10.23;;;;;;;;;;5037905;28;20140;-78
2023/02/24 04:37:32;;;;;;;20.88;9.88;;;;;;;;;;5041645;28;20109;-79
2023/02/24 04:40:01;;;;;;;;;;;;;;;;;;5041039;28;20635;-78
2023/02/24 04:42:28;;;;;;;18.52;10.25;;;;;;;;;;5041323;28;19964;-78
2023/02/24 04:44:57;;;;;;;18.15;9.65;;;;;;;;;;5041374;28;20048;-78
2023/02/24 04:47:24;;;;;;;18.73;10.70;;;;;;;;;;5047595;28;20049;-79
2023/02/24 04:49:50;;;;;;;18.05;10.18;;;;;;;;;;5043646;28;20084;-80
2023/02/24 04:52:19;;;;;;;15.70;9.90;;;;;;;;;;5042460;28;20041;-78
2023/02/24 04:54:46;;;;;;;16.10;8.50;;;;;;;;;;5041112;28;20049;-80
2023/02/24 04:57:15;;;;;;;14.70;7.55;;;;;;;;;;5042082;28;20080;-78
2023/02/24 04:59:41;;;;;;;16.80;9.00;;;;;;;;;;5040888;28;20080;-79
2023/02/24 05:02:08;;;;;;;13.27;7.63;;;;;;;;;;5040812;28;20049;-79
2023/02/24 05:04:37;;;;;;;14.55;7.50;;;;;;;;;;5040566;28;20171;-78
2023/02/24 05:07:04;;;;;;;12.27;7.28;;;;;;;;;;5024459;28;20045;-78
2023/02/24 05:09:31;;;;;;;15.82;7.82;;;;;;;;;;5021187;28;20045;-79
2023/02/24 05:11:59;;;;;;;14.63;6.55;;;;;;;;;;5022573;28;20077;-78
2023/02/24 05:14:27;;;;;;;12.73;6.90;;;;;;;;;;5022346;28;20081;-79
2023/02/24 05:16:58;;;;;;;13.05;6.70;;;;;;;;;;5022259;28;20050;-79
2023/02/24 05:22:13;;;;;;;14.27;6.13;;;;;;;;;;5018992;28;20069;-79
2023/02/24 05:24:41;;;;;;;12.68;6.22;;;;;;;;;;5023499;28;20054;-79
2023/02/24 05:27:07;;;;;;;11.77;5.93;;;;;;;;;;5024792;28;20125;-79
2023/02/24 05:29:35;;;;;;;10.52;5.13;;;;;;;;;;5022878;28;20046;-79
2023/02/24 05:32:04;;;;;;;14.05;5.85;;;;;;;;;;5024023;28;20109;-79
2023/02/24 05:34:32;;;;;;;12.05;5.78;;;;;;;;;;5019492;28;20393;-79
2023/02/24 05:37:03;;;;;;;10.02;5.93;;;;;;;;;;5016984;28;20544;-79
2023/02/24 05:39:30;;;;;;;11.73;6.03;;;;;;;;;;5017311;28;20069;-79
2023/02/24 05:41:57;;;;;;;10.48;5.85;;;;;;;;;;5016773;28;20073;-79
2023/02/24 05:44:25;;;;;;;11.27;5.63;;;;;;;;;;5016918;28;20520;-80
2023/02/24 05:46:57;;;;;;;10.93;6.30;;;;;;;;;;5015511;28;20074;-80
2023/02/24 05:49:28;;;;;;;11.10;5.53;;;;;;;;;;5016052;28;20417;-78
2023/02/24 05:51:55;;;;;;;;;;;;;;;;;;5014448;28;20046;-78
2023/02/24 05:54:24;;;;;;;13.18;5.85;;;;;;;;;;5013746;28;19964;-78
2023/02/24 05:56:52;;;;;;;13.65;6.75;;;;;;;;;;5013741;28;20571;-78
2023/02/24 05:59:20;;;;;;;13.27;5.95;;;;;;;;;;5014852;28;20109;-77
2023/02/24 06:01:47;;;;;;;12.23;6.78;;;;;;;;;;5015520;28;20057;-78
2023/02/24 06:04:26;;;;;;;12.85;7.20;;;;;;;;;;5015682;28;20141;-78
2023/02/24 06:06:53;;;;;;;11.73;6.20;;;;;;;;;;5019645;28;20060;-78
2023/02/24 06:09:22;;;;;;;13.63;7.35;;;;;;;;;;5020277;28;20061;-78
2023/02/24 06:11:50;;;;;;;14.80;6.95;;;;;;;;;;5017471;28;20046;-78
2023/02/24 06:14:20;;;;;;;12.90;6.57;;;;;;;;;;5016404;28;20077;-78
2023/02/24 06:16:47;;;;;;;12.57;6.03;;;;;;;;;;5017927;28;20322;-79
2023/02/24 06:19:15;;;;;;;11.98;6.88;;;;;;;;;;5017517;28;20049;-79
2023/02/24 06:21:42;;;;;;;14.10;6.53;;;;;;;;;;5015933;28;20046;-79
2023/02/24 06:24:13;;;;;;;13.30;6.65;;;;;;;;;;5015973;28;20050;-79
2023/02/24 06:26:42;;;;;;;11.35;5.78;;;;;;;;;;5017100;28;20460;-79
2023/02/24 06:29:13;;;;;;;11.73;6.68;;;;;;;;;;5017723;28;20050;-79
2023/02/24 06:31:40;;;;;;;;;;;;;;;;;;5017290;28;20042;-79
2023/02/24 06:34:09;;;;;;;12.60;6.60;;;;;;;;;;5018337;28;19921;-78
2023/02/24 06:36:37;;;;;;;12.82;6.30;;;;;;;;;;5017706;28;20509;-80
2023/02/24 06:39:06;;;;;;;10.27;5.85;;;;;;;;;;5017975;28;20402;-80
2023/02/24 06:41:34;;;;;;;9.20;5.10;;;;;;;;;;5018083;28;20077;-80
2023/02/24 06:44:01;;;;;;;12.38;6.60;;;;;;;;;;5019353;28;20062;-80
2023/02/24 06:46:28;;;;;;;13.82;6.53;;;;;;;;;;5018124;28;20054;-80
2023/02/24 06:48:55;;;;;;;12.18;6.95;;;;;;;;;;5019609;28;20093;-79
2023/02/24 06:51:22;;;;;;;12.68;7.30;;;;;;;;;;5018919;28;20106;-80
2023/02/24 06:53:52;;;;;;;14.15;7.43;;;;;;;;;;5018906;28;20049;-80
2023/02/24 06:56:19;;;;;;;12.55;7.78;;;;;;;;;;5018298;28;20053;-80
2023/02/24 06:58:49;;;;;;;11.38;7.18;;;;;;;;;;5024221;28;20080;-79
2023/02/24 07:01:18;;;;;;;14.02;7.65;;;;;;;;;;5028446;28;20050;-79
2023/02/24 07:04:02;;;;;;;13.02;7.75;;;;;;;;;;5025618;28;20046;-79
2023/02/24 07:06:29;;;;;;;12.90;7.35;;;;;;;;;;5033761;28;20041;-80
2023/02/24 07:09:03;;;;;;;12.88;6.82;;;;;;;;;;5041896;28;20073;-79
2023/02/24 07:11:31;;;;;;;14.05;7.18;;;;;;;;;;5041086;28;20045;-80
2023/02/24 07:13:59;;;;;;;12.00;7.20;;;;;;;;;;5041149;28;20041;-79
2023/02/24 07:16:27;;;;;;;14.13;6.88;;;;;;;;;;5041456;28;20136;-80
2023/02/24 07:18:55;;;;;;;16.95;7.43;;;;;;;;;;5042156;28;20065;-80
2023/02/24 07:21:22;;;;;;;13.70;6.95;;;;;;;;;;5040766;28;20128;-79
2023/02/24 07:23:55;;;;;;;15.15;6.53;;;;;;;;;;5039887;28;20132;-80
2023/02/24 07:26:25;;;;;;;13.88;6.90;;;;;;;;;;5043020;28;20049;-79
2023/02/24 07:28:53;;;;;;;10.53;6.40;;;;;;;;;;5041398;28;20050;-80
2023/02/24 07:31:22;;;;;;;14.05;6.80;;;;;;;;;;5043628;28;20050;-79
2023/02/24 07:33:54;;;;;;;14.57;7.28;;;;;;;;;;5044322;28;20049;-79
2023/02/24 07:36:28;;;;;;;13.35;6.45;;;;;;;;;;5042779;28;20095;-79
2023/02/24 07:38:59;;;;;;;14.57;7.20;;;;;;;;;;5049555;28;20064;-78
2023/02/24 07:41:27;;;;;;;17.05;6.65;;;;;;;;;;5039716;28;20052;-78
2023/02/24 07:43:57;;;;;;;17.85;7.57;;;;;;;;;;5041595;28;20499;-77
2023/02/24 07:46:30;;;;;;;13.48;7.43;;;;;;;;;;5044743;28;20056;-79
2023/02/24 07:48:58;;;;;;;16.58;7.65;;;;;;;;;;5044690;28;20053;-79
2023/02/24 07:51:26;;;;;;;15.25;7.45;;;;;;;;;;5044233;28;20057;-81
2023/02/24 07:53:57;;;;;;;21.08;8.15;;;;;;;;;;5044472;28;20069;-80
2023/02/24 07:56:26;;;;;;;18.55;9.25;;;;;;;;;;5051046;28;20121;-79
2023/02/24 07:59:08;;;;;;;20.80;9.55;;;;;;;;;;5052513;28;20527;-81
2023/02/24 08:01:38;;;;;;;21.52;11.23;;;;;;;;;;5056913;28;20048;-79
2023/02/24 08:04:06;;;;;;;19.17;9.80;;;;;;;;;;5056280;28;20105;-79
2023/02/24 08:06:37;;;;;;;19.02;10.38;;;;;;;;;;5047829;28;20544;-78
2023/02/24 08:09:16;;;;;;;19.35;10.15;;;;;;;;;;5035651;28;20057;-80
2023/02/24 08:11:44;;;;;;;24.05;11.73;;;;;;;;;;5036762;28;20050;-80
2023/02/24 08:14:13;;;;;;;28.17;10.68;;;;;;;;;;5036771;28;20077;-79
2023/02/24 08:16:41;;;;;;;25.30;11.40;;;;;;;;;;5036643;28;20093;-80
2023/02/24 08:19:11;;;;;;;27.63;12.15;;;;;;;;;;5036913;28;20046;-80
2023/02/24 08:21:40;;;;;;;24.42;12.15;;;;;;;;;;5036459;28;20064;-81
2023/02/24 08:24:18;;;;;;;23.95;13.10;;;;;;;;;;5034759;28;20104;-81
2023/02/24 08:27:03;;;;;;;25.92;12.35;;;;;;;;;;5033341;28;20053;-80
2023/02/24 08:29:38;;;;;;;27.00;12.20;;;;;;;;;;5030066;28;20054;-79
2023/02/24 08:32:05;;;;;;;27.25;13.98;;;;;;;;;;5029905;28;20056;-79
2023/02/24 08:34:35;;;;;;;29.92;13.98;;;;;;;;;;5026974;28;20133;-78
2023/02/24 08:37:02;;;;;;;25.23;13.43;;;;;;;;;;5026993;28;20054;-80
2023/02/24 08:39:29;;;;;;;24.15;12.85;;;;;;;;;;5029536;28;20054;-80
2023/02/24 08:41:57;;;;;;;23.17;10.73;;;;;;;;;;5029264;28;20136;-78
2023/02/24 08:44:26;;;;;;;26.45;11.50;;;;;;;;;;5030566;28;20053;-79
2023/02/24 08:47:03;;;;;;;22.75;11.52;;;;;;;;;;5025871;28;20046;-81
2023/02/24 08:49:32;;;;;;;25.15;12.50;;;;;;;;;;5028348;28;20060;-78
2023/02/24 08:52:01;;;;;;;24.17;11.00;;;;;;;;;;5028044;28;20424;-78
2023/02/24 08:54:33;;;;;;;18.95;10.35;;;;;;;;;;5029185;28;20054;-79
2023/02/24 08:57:06;;;;;;;22.98;11.35;;;;;;;;;;5029471;28;20052;-79
2023/02/24 08:59:42;;;;;;;19.92;10.07;;;;;;;;;;5029250;28;20101;-80
2023/02/24 09:02:22;;;;;;;26.48;10.82;;;;;;;;;;5026561;28;20041;-79
2023/02/24 09:04:51;;;;;;;24.98;11.98;;;;;;;;;;5026589;28;20489;-80
2023/02/24 09:07:21;;;;;;;21.35;10.13;;;;;;;;;;5045711;28;20049;-78
2023/02/24 09:09:55;;;;;;;22.90;10.80;;;;;;;;;;5047752;28;20045;-78
2023/02/24 09:12:23;;;;;;;22.20;11.57;;;;;;;;;;5044613;28;20077;-80
2023/02/24 09:14:55;;;;;;;20.90;10.77;;;;;;;;;;5041243;28;20049;-77
2023/02/24 09:20:54;;;;;;;21.13;11.23;;;;;;;;;;5048632;28;20053;-78
2023/02/24 09:23:18;;;;;;;21.25;10.45;;;;;;;;;;5048546;28;20049;-78
2023/02/24 09:25:49;;;;;;;21.50;10.70;;;;;;;;;;5044142;28;20484;-79
2023/02/24 09:28:17;;;;;;;26.65;12.20;;;;;;;;;;5045267;28;20062;-79
2023/02/24 09:30:53;;;;;;;21.50;11.18;;;;;;;;;;5043926;28;20072;-78
2023/02/24 09:33:25;;;;;;;21.10;11.05;;;;;;;;;;5047187;28;20076;-78
2023/02/24 09:36:08;;;;;;;26.67;11.32;;;;;;;;;;5046338;28;20539;-81
2023/02/24 09:41:31;;;;;;;24.50;11.93;;;;;;;;;;5048285;28;20056;-79
2023/02/24 09:44:06;;;;;;;30.40;12.73;;;;;;;;;;5049704;28;20543;-78
2023/02/24 09:46:39;;;;;;;31.13;11.55;;;;;;;;;;5046890;28;20113;-80
2023/02/24 09:49:16;;;;;;;20.38;10.75;;;;;;;;;;5049188;28;20532;-79
2023/02/24 09:51:44;;;;;;;25.75;11.10;;;;;;;;;;5049072;28;20049;-79
2023/02/24 09:54:17;;;;;;;24.23;11.90;;;;;;;;;;5049240;28;20052;-79
2023/02/24 09:57:06;;;;;;;27.70;12.20;;;;;;;;;;5049144;28;20056;-80
2023/02/24 09:59:49;;;;;;;27.35;12.98;;;;;;;;;;5047819;28;20045;-80
2023/02/24 10:02:33;;;;;;;22.85;12.68;;;;;;;;;;5048704;28;20063;-78
2023/02/24 10:05:13;;;;;;;23.77;12.18;;;;;;;;;;5044616;28;20084;-79
2023/02/24 10:07:42;;;;;;;24.13;13.35;;;;;;;;;;5045624;28;20099;-79
2023/02/24 10:10:26;;;;;;;32.08;12.38;;;;;;;;;;5046846;28;20137;-80
2023/02/24 10:13:00;;;;;;;29.40;13.82;;;;;;;;;;5047585;28;20045;-80
2023/02/24 10:15:58;;;;;;;28.13;13.63;;;;;;;;;;5047740;28;20050;-78
2023/02/24 10:18:29;;;;;;;24.45;12.48;;;;;;;;;;5047384;28;20053;-79
2023/02/24 10:21:01;;;;;;;;;;;;;;;;;;5047724;28;20053;-79
2023/02/24 10:23:50;;;;;;;28.95;13.90;;;;;;;;;;5047068;28;19928;-77
2023/02/24 10:26:30;;;;;;;28.60;14.57;;;;;;;;;;5047511;28;20475;-79
2023/02/24 10:29:17;;;;;;;31.60;14.10;;;;;;;;;;5048366;28;20101;-78
2023/02/24 10:31:56;;;;;;;30.20;13.70;;;;;;;;;;5049117;28;20084;-79
2023/02/24 10:34:25;;;;;;;26.83;12.93;;;;;;;;;;5052874;28;20045;-77
2023/02/24 10:36:59;;;;;;;29.48;14.23;;;;;;;;;;5051771;28;20053;-79
2023/02/24 10:39:32;;;;;;;26.13;13.32;;;;;;;;;;5050933;28;20402;-79
2023/02/24 10:42:15;;;;;;;30.42;14.10;;;;;;;;;;5052369;28;20053;-79
2023/02/24 10:44:50;;;;;;;27.70;12.75;;;;;;;;;;5052480;28;20057;-78
2023/02/24 10:47:19;;;;;;;31.05;13.27;;;;;;;;;;5053104;28;20053;-78
2023/02/24 10:49:58;;;;;;;32.45;14.65;;;;;;;;;;5047760;28;20079;-79
2023/02/24 10:55:38;;;;;;;29.40;14.18;;;;;;;;;;5045393;28;20073;-79
2023/02/24 10:58:06;;;;;;;32.53;14.43;;;;;;;;;;5047919;28;20064;-80
2023/02/24 11:00:59;;;;;;;28.20;13.90;;;;;;;;;;5050059;28;20092;-79
2023/02/24 11:03:40;;;;;;;30.80;14.40;;;;;;;;;;5058517;28;20207;-78
2023/02/24 11:06:40;;;;;;;29.30;13.50;;;;;;;;;;5046370;28;20057;-79
2023/02/24 11:09:34;;;;;;;27.38;12.77;;;;;;;;;;5026691;28;20060;-78
2023/02/24 11:17:49;;;;;;;30.33;13.68;;;;;;;;;;5021325;28;20088;-80
2023/02/24 11:20:24;;;;;;;27.42;13.20;;;;;;;;;;5021984;28;20042;-80
2023/02/24 11:22:54;;;;;;;24.75;13.05;;;;;;;;;;5021427;28;20485;-81
2023/02/24 11:25:28;;;;;;;28.90;12.67;;;;;;;;;;5022710;28;20049;-78
2023/02/24 11:27:56;;;;;;;25.15;13.05;;;;;;;;;;5022854;28;20046;-80
2023/02/24 11:30:37;;;;;;;29.35;12.50;;;;;;;;;;5026297;28;20073;-78
2023/02/24 11:33:16;;;;;;;26.40;13.35;;;;;;;;;;5026825;28;20069;-79
2023/02/24 11:35:50;;;;;;;26.42;12.75;;;;;;;;;;5023126;28;20084;-80
2023/02/24 11:38:29;;;;;;;22.60;11.73;;;;;;;;;;5020392;28;20054;-80
2023/02/24 11:41:05;;;;;;;31.23;13.80;;;;;;;;;;5018164;28;20133;-80
2023/02/24 11:43:36;;;;;;;27.38;13.38;;;;;;;;;;5022670;28;20384;-78
2023/02/24 11:46:08;;;;;;;26.05;13.07;;;;;;;;;;5022547;28;20492;-78
2023/02/24 11:48:39;;;;;;;32.58;15.18;;;;;;;;;;5023747;28;20106;-79
2023/02/24 11:51:10;;;;;;;30.85;13.90;;;;;;;;;;5024557;28;20084;-79
2023/02/24 11:53:43;;;;;;;26.60;13.02;;;;;;;;;;5023779;28;20133;-80
2023/02/24 11:56:19;;;;;;;28.88;15.27;;;;;;;;;;5022970;28;20046;-79
2023/02/24 11:58:52;;;;;;;32.00;13.82;;;;;;;;;;5025102;28;20125;-80
2023/02/24 12:01:25;;;;;;;28.85;15.55;;;;;;;;;;5023124;28;20129;-80
2023/02/24 12:03:57;;;;;;;29.15;14.70;;;;;;;;;;5020584;28;20049;-79
2023/02/24 12:06:30;;;;;;;26.38;13.60;;;;;;;;;;5034105;28;20053;-78
2023/02/24 12:09:08;;;;;;;26.33;14.05;;;;;;;;;;5050404;28;20049;-79
2023/02/24 12:11:45;;;;;;;28.33;14.40;;;;;;;;;;5050534;28;20045;-77
2023/02/24 12:14:21;;;;;;;27.42;12.73;;;;;;;;;;5045139;28;20049;-79
2023/02/24 12:16:54;;;;;;;26.58;14.00;;;;;;;;;;5045459;28;20109;-78
2023/02/24 12:19:26;;;;;;;27.73;13.70;;;;;;;;;;5047180;28;20125;-78
2023/02/24 12:21:57;;;;;;;29.08;13.60;;;;;;;;;;5044127;28;20238;-81
2023/02/24 12:24:24;;;;;;;28.50;13.88;;;;;;;;;;5042400;28;20124;-79
2023/02/24 12:27:02;;;;;;;28.85;14.40;;;;;;;;;;5038772;28;20076;-80
2023/02/24 12:29:41;;;;;;;25.35;13.23;;;;;;;;;;5040013;28;20132;-78
2023/02/24 12:32:19;;;;;;;27.55;12.73;;;;;;;;;;5046849;28;20064;-78
2023/02/24 12:35:02;;;;;;;28.67;13.43;;;;;;;;;;5057384;28;20037;-80
2023/02/24 12:38:03;;;;;;;29.20;14.32;;;;;;;;;;5056692;28;20065;-77
2023/02/24 12:40:44;;;;;;;26.13;12.82;;;;;;;;;;5043195;28;20290;-78
2023/02/24 12:43:24;;;;;;;24.17;12.20;;;;;;;;;;5042254;28;20081;-78
2023/02/24 12:45:57;;;;;;;26.20;12.70;;;;;;;;;;5040639;28;20151;-79
2023/02/24 12:48:47;;;;;;;27.17;13.48;;;;;;;;;;5040897;28;20045;-79
2023/02/24 12:51:19;;;;;;;26.55;12.57;;;;;;;;;;5039751;28;20045;-78
2023/02/24 12:53:52;;;;;;;22.75;13.27;;;;;;;;;;5039998;28;20056;-78
2023/02/24 12:56:22;;;;;;;26.40;11.93;;;;;;;;;;5038319;28;20880;-79
2023/02/24 12:58:52;;;;;;;;;;;;;;;;;;5039108;28;20057;-79
2023/02/24 13:01:27;;;;;;;26.65;11.95;;;;;;;;;;5036909;28;19975;-79
2023/02/24 13:04:07;;;;;;;26.38;13.25;;;;;;;;;;5040591;28;20077;-79
2023/02/24 13:06:48;;;;;;;27.10;13.60;;;;;;;;;;5025329;28;20081;-80
2023/02/24 13:09:21;;;;;;;30.25;14.38;;;;;;;;;;5018547;28;20128;-79
2023/02/24 13:11:55;;;;;;;27.52;13.68;;;;;;;;;;5017275;28;20133;-79
2023/02/24 13:14:28;;;;;;;25.75;13.95;;;;;;;;;;5020854;28;20041;-79
2023/02/24 13:17:16;;;;;;;26.05;13.25;;;;;;;;;;5019771;28;20496;-79
2023/02/24 13:19:44;;;;;;;27.98;13.07;;;;;;;;;;5016865;28;20064;-79
2023/02/24 13:22:22;;;;;;;24.73;13.77;;;;;;;;;;5017699;28;20133;-79
2023/02/24 13:24:57;;;;;;;27.35;13.32;;;;;;;;;;5018525;28;20084;-80
2023/02/24 13:27:27;;;;;;;26.55;14.32;;;;;;;;;;5016194;28;20049;-80
2023/02/24 13:29:57;;;;;;;29.88;13.48;;;;;;;;;;5017240;28;20045;-80
2023/02/24 13:32:28;;;;;;;24.05;13.65;;;;;;;;;;5017686;28;20533;-79
2023/02/24 13:34:56;;;;;;;25.67;13.43;;;;;;;;;;5019220;28;20050;-78
2023/02/24 13:37:31;;;;;;;24.75;13.63;;;;;;;;;;5019947;28;20049;-79
2023/02/24 13:39:58;;;;;;;27.90;13.48;;;;;;;;;;5015862;28;20072;-79
2023/02/24 13:42:27;;;;;;;31.65;14.85;;;;;;;;;;5016518;28;20408;-79
2023/02/24 13:45:04;;;;;;;30.27;15.80;;;;;;;;;;5018554;28;20080;-79
2023/02/24 13:47:57;;;;;;;26.08;13.43;;;;;;;;;;5020031;28;20046;-78
2023/02/24 13:50:27;;;;;;;28.52;14.35;;;;;;;;;;5017699;28;20486;-79
2023/02/24 13:53:28;;;;;;;23.70;13.50;;;;;;;;;;5018326;28;20050;-80
2023/02/24 13:56:10;;;;;;;28.98;14.73;;;;;;;;;;5017795;28;20105;-79
2023/02/24 13:59:10;;;;;;;27.20;13.07;;;;;;;;;;5018514;28;20382;-79
2023/02/24 14:01:48;;;;;;;27.42;14.73;;;;;;;;;;4994157;28;20469;-79
2023/02/24 14:04:20;;;;;;;27.42;14.98;;;;;;;;;;5018425;28;20050;-79
2023/02/24 14:06:48;;;;;;;28.27;14.27;;;;;;;;;;5029505;28;20045;-80
2023/02/24 14:09:21;;;;;;;31.27;15.68;;;;;;;;;;5035440;28;20254;-80
2023/02/24 14:11:51;;;;;;;29.38;14.43;;;;;;;;;;5036075;28;20045;-79
2023/02/24 14:14:18;;;;;;;31.05;14.57;;;;;;;;;;5035709;28;20064;-79
2023/02/24 14:16:50;;;;;;;32.10;16.13;;;;;;;;;;5037363;28;20045;-81
2023/02/24 14:19:18;;;;;;;28.98;14.68;;;;;;;;;;5037845;28;20545;-80
2023/02/24 14:21:51;;;;;;;31.67;16.23;;;;;;;;;;5036826;28;20105;-79
2023/02/24 14:24:19;;;;;;;27.48;15.50;;;;;;;;;;5036079;28;20105;-78
2023/02/24 14:26:48;;;;;;;30.88;15.70;;;;;;;;;;5035455;28;20045;-78
2023/02/24 14:29:18;;;;;;;32.08;14.88;;;;;;;;;;5035887;28;20477;-80
2023/02/24 14:31:49;;;;;;;28.92;15.02;;;;;;;;;;5036045;28;20136;-78
2023/02/24 14:34:19;;;;;;;32.00;15.57;;;;;;;;;;5037556;28;20045;-78
2023/02/24 14:36:47;;;;;;;31.38;15.18;;;;;;;;;;5037613;28;20041;-80
2023/02/24 14:39:16;;;;;;;31.58;15.85;;;;;;;;;;5037885;28;20058;-80
2023/02/24 14:41:44;;;;;;;27.67;14.98;;;;;;;;;;5037221;28;20113;-79
2023/02/24 14:44:22;;;;;;;35.00;16.42;;;;;;;;;;5038183;28;20041;-81
2023/02/24 14:46:52;;;;;;;32.10;16.23;;;;;;;;;;5037540;28;20069;-79
2023/02/24 14:49:23;;;;;;;28.23;14.95;;;;;;;;;;5036708;28;20132;-79
2023/02/24 14:51:54;;;;;;;27.17;14.75;;;;;;;;;;5035958;28;20069;-78
2023/02/24 14:54:27;;;;;;;31.23;14.30;;;;;;;;;;5035426;28;20112;-79
2023/02/24 14:56:54;;;;;;;30.52;14.00;;;;;;;;;;5035825;28;20447;-79
2023/02/24 14:59:28;;;;;;;30.30;15.00;;;;;;;;;;5035508;28;20493;-79
2023/02/24 15:01:57;;;;;;;31.33;14.60;;;;;;;;;;5037071;28;20080;-77
2023/02/24 15:04:32;;;;;;;26.55;13.80;;;;;;;;;;5039792;28;20092;-80
2023/02/24 15:07:00;;;;;;;28.20;13.93;;;;;;;;;;5025910;28;20124;-80
2023/02/24 15:09:33;;;;;;;27.83;14.13;;;;;;;;;;5018585;28;20048;-80
2023/02/24 15:12:22;;;;;;;28.92;14.27;;;;;;;;;;5018405;28;20050;-79
2023/02/24 15:14:52;;;;;;;30.10;14.23;;;;;;;;;;5017231;28;20042;-79